To NAV CANADA Home Page Login to a new session Search on AWWS site Disclaimer Vers la page française équivalente Tips FAQ What's new on the site To the Forecasts and Observations / NOTAM section To "File a Flight Plan" website Publications and other links Update of the User's profile FIC Telephone Numbers My Weather Data Folder Route Weather Data Regional Weather Data Local Weather Data To the Forecasts and Observations / NOTAM section
Request Generated 10/21/2018 at 05:50:59 UTC . Weather information available at that time is displayed.

METAR/TAF

BATHURST/NB    

METAR CZBF 210500Z AUTO 00000KT 9SM CLR 02/M01 A2945 RMK SLP977=
METAR CZBF 210400Z AUTO 00000KT 9SM CLR 05/M02 A2945 RMK SLP975=
METAR CZBF 210300Z AUTO 27008G16KT 9SM CLR 08/M02 A2944 RMK SLP972=

*** REMARK        : Forecast period has ended; this was the last TAF issued
*** REMARQUE : La période de prévision est échue; ceci était le dernier TAF qui a été émis
TAF CZBF 201938Z 2020/2103 22015G25KT P6SM BKN060 TEMPO 2020/2024
P6SM -SHRA
FM210000 24008G18KT P6SM SCT050
RMK FCST BASED ON AUTO OBS. NXT FCST WILL BE ISSUED AT 210845Z=
Your time UTC time
Weather data provided by Environment Canada and NAV CANADA